Impacts TAF Board
For situational awareness. Not to be used for flight planning purposes.
IDs:

KFMY - Fort Myers/Page Fld, FL, US

Issued at 2041 UTC 30 Jun 2022
Updated at 2254 UTC 30 Jun 2022
Potential Impact None Slight Moderate High
Time2236Z 30/23Z 01/00Z 01/01Z 01/02Z 01/03Z 01/04Z 01/05Z 01/06Z 01/07Z 01/08Z 01/09Z 01/10Z 01/11Z>>
Type OBS PRVL PRVL PRVL PRVL PRVL PRVL PRVL PRVL PRVL PRVL PRVL PRVL PRVL
VIS 3 >6 >6 >6 >6 >6 >6 >6 >6 >6 >6 >6 >6 >6
CIG 70 -- -- 200 200 200 200 200 200 200 200 200 200 200
Cover OVC SCT SCT BKN BKN BKN BKN BKN BKN BKN BKN BKN BKN BKN
FltCat MVFR VFR VFR VFR VFR VFR VFR VFR VFR VFR VFR VFR VFR VFR
WX -TSRA BR VCTS VCTS -- -- -- -- -- -- -- -- -- -- --
WDir VRB 260 260 VRB VRB VRB VRB VRB VRB VRB VRB VRB VRB VRB
WSpd 0 7 7 3 3 3 3 3 3 3 3 3 3 3
WGst -- -- -- -- -- -- -- -- -- -- -- -- -- --
WSHgt -- -- -- -- -- -- -- -- -- -- -- -- -- --
WSDir -- -- -- -- -- -- -- -- -- -- -- -- -- --
WSSpd -- -- -- -- -- -- -- -- -- -- -- -- -- --
Raw TAF
KFMY 302041Z 3021/0118 26007KT P6SM VCTS FEW030CB SCT150
  TEMPO 3021/3023 VRB15G25KT 2SM TSRA BKN025CB
  FM010100 VRB03KT P6SM SCT030 BKN200
  FM011600 13006KT P6SM FEW250


Raw METAR
KFMY 302236Z AUTO 00000KT 3SM -TSRA BR SCT048 BKN070 OVC110 24/22 A3008 RMK AO2 LTG DSNT NW-NE TSE14B26 P0063 T02440222
KFMY 302228Z AUTO 16003KT 1SM +TSRA BR BKN050 BKN070 OVC100 24/22 A3008 RMK AO2 LTG DSNT NW-NE TSE14B26 P0060 T02390222
KFMY 302216Z AUTO 16003KT 3/4SM VCTS +RA BR BKN040 BKN070 OVC110 24/22 A3009 RMK AO2 LTG DSNT NW-NE TSE14 P0034 T02390222
KFMY 302211Z AUTO 19006KT 1 1/2SM +TSRA BR BKN042 BKN070 OVC090 24/22 A3010 RMK AO2 LTG DSNT NW-NE P0028 T02440222
KFMY 302202Z AUTO 19005KT 3/4SM +TSRA BR BKN035 OVC045 24/22 A3010 RMK AO2 LTG DSNT NW-NE P0023 T02440222
KFMY 302153Z AUTO 08010KT 1 1/2SM +TSRA SCT034 BKN047 OVC060 24/22 A3009 RMK AO2 PK WND 27030/2059 LTG DSNT NW-E RAE13B42 SLP192 P0009 T02440217
KFMY 302102Z AUTO 27010G30KT 3SM TSRA SCT037 BKN046 OVC100 27/21 A3004 RMK AO2 PK WND 27030/2059 LTG DSNT ALQDS P0003 T02670206
KFMY 302053Z AUTO 28012G29KT 1SM TSRA FEW031 BKN048 OVC100 28/23 A3004 RMK AO2 PK WND 32038/2043 LTG DSNT E AND SE RAB29 TSB26 SLP175 P0056 60056 T02780228 55013
KFMY 302045Z AUTO 31011G38KT 1/2SM +TSRA SCT023 OVC046 28/23 A3005 RMK AO2 PK WND 32038/2043 LTG DSNT E AND SE RAB29 TSB26 P0043 T02830228
KFMY 302036Z AUTO 35023G31KT 1 1/2SM +TSRA BKN048 BKN080 OVC120 29/22 A3006 RMK AO2 PK WND 35031/2036 LTG DSNT E AND SE RAB29 TSB26 PRESRR P0010 T02940222
KFMY 302026Z AUTO VRB03KT 10SM TS BKN050 BKN080 BKN120 33/22 A3003 RMK AO2 LTG DSNT E AND SE TSB26 T03330217
KFMY 301953Z AUTO 32005KT 10SM FEW070 34/22 A3003 RMK AO2 LTG DSNT SE AND S SLP171 T03390222

METAR Board
Radar Display
Forecast Discussion
For situational awareness. Not to be used for flight planning purposes.